Time;durP1;ratioP1;P1;durP2;ratioP2;P2;SDS_P1;SDS_P2;PMS_P1;PMS_P2;Temp;Humidity;BMP_temperature;BMP_pressure;BME280_temperature;BME280_humidity;BME280_pressure;Samples;Min_cycle;Max_cycle;Signal;HPM_P1;HPM_P2
2021/12/20 00:01:16;;;;;;;8.07;5.50;;;;;;;5.79;63.91;98824.78;5110626;28;20273;-55
2021/12/20 00:03:43;;;;;;;6.53;5.27;;;;;;;5.83;64.13;98828.22;5110780;28;20227;-55
2021/12/20 00:06:09;;;;;;;6.43;5.20;;;;;;;5.93;62.86;98830.22;5110845;28;20280;-55
2021/12/20 00:08:36;;;;;;;7.67;4.80;;;;;;;5.84;63.54;98818.09;5110776;28;20195;-55
2021/12/20 00:11:05;;;;;;;8.37;5.47;;;;;;;5.86;63.63;98821.56;5110604;28;20572;-55
2021/12/20 00:13:32;;;;;;;5.30;4.73;;;;;;;5.93;63.43;98810.66;5113162;28;20191;-55
2021/12/20 00:15:59;;;;;;;7.50;5.47;;;;;;;5.92;62.69;98815.75;5114812;28;20205;-55
2021/12/20 00:18:26;;;;;;;8.00;5.43;;;;;;;5.93;62.76;98820.03;5114974;28;20190;-55
2021/12/20 00:20:53;;;;;;;6.47;5.17;;;;;;;5.88;64.30;98827.53;5114736;28;20194;-55
2021/12/20 00:23:20;;;;;;;6.20;5.23;;;;;;;5.95;64.27;98826.03;5114542;28;20332;-55
2021/12/20 00:25:48;;;;;;;8.80;6.10;;;;;;;5.96;64.03;98832.81;5114701;28;20279;-55
2021/12/20 00:28:17;;;;;;;6.93;5.73;;;;;;;6.00;63.51;98844.84;5114837;28;20191;-55
2021/12/20 00:30:45;;;;;;;7.73;5.77;;;;;;;6.07;64.00;98841.59;5114814;28;20187;-55
2021/12/20 00:33:12;;;;;;;6.83;5.37;;;;;;;6.09;63.50;98850.16;5114459;28;20612;-55
2021/12/20 00:35:39;;;;;;;7.57;6.40;;;;;;;6.08;63.97;98853.53;5114433;28;20188;-55
2021/12/20 00:40:50;;;;;;;7.63;6.43;;;;;;;6.20;63.57;98861.47;5114562;28;20685;-59
2021/12/20 00:43:19;;;;;;;8.27;6.80;;;;;;;6.23;63.72;98848.78;5114598;28;20229;-60
2021/12/20 00:45:45;;;;;;;8.10;6.83;;;;;;;6.17;63.61;98830.78;5114351;28;20191;-59
2021/12/20 00:48:12;;;;;;;8.97;6.63;;;;;;;6.22;63.49;98846.19;5114501;28;20214;-60
2021/12/20 00:50:41;;;;;;;7.50;6.27;;;;;;;6.23;63.93;98853.88;5114235;28;20192;-59
2021/12/20 00:53:10;;;;;;;9.77;7.53;;;;;;;6.16;64.09;98848.59;5114278;28;20199;-60
2021/12/20 00:55:37;;;;;;;8.27;7.13;;;;;;;6.18;64.03;98852.91;5114232;28;20195;-59
2021/12/20 00:58:05;;;;;;;9.53;6.67;;;;;;;6.14;64.59;98856.22;5114521;28;20190;-59
2021/12/20 01:00:36;;;;;;;10.93;7.00;;;;;;;6.18;65.53;98854.63;5113887;28;20282;-60
2021/12/20 01:03:05;;;;;;;10.37;7.63;;;;;;;6.16;65.07;98867.31;5114121;28;20203;-60
2021/12/20 01:05:32;;;;;;;11.13;7.70;;;;;;;6.13;65.25;98862.13;5114039;28;20192;-59
2021/12/20 01:08:01;;;;;;;9.57;7.13;;;;;;;6.15;64.78;98865.59;5114531;28;20225;-55
2021/12/20 01:10:30;;;;;;;9.30;7.57;;;;;;;6.11;65.59;98848.50;5113614;28;20446;-55
2021/12/20 01:12:59;;;;;;;7.93;7.07;;;;;;;6.17;64.29;98850.31;5113611;28;20684;-55
2021/12/20 01:15:31;;;;;;;9.60;6.70;;;;;;;6.10;64.48;98849.31;5113926;28;20186;-55
2021/12/20 01:18:00;;;;;;;10.20;7.37;;;;;;;6.12;64.26;98845.13;5113508;28;20684;-55
2021/12/20 01:20:27;;;;;;;9.00;7.60;;;;;;;6.07;65.37;98833.09;5113997;28;20277;-55
2021/12/20 01:22:54;;;;;;;8.90;7.10;;;;;;;6.09;65.52;98846.75;5113659;28;20319;-55
2021/12/20 01:25:22;;;;;;;10.10;7.40;;;;;;;6.05;66.00;98839.81;5113413;28;20211;-56
2021/12/20 01:27:50;;;;;;;11.13;7.87;;;;;;;6.01;66.54;98833.81;5113452;28;20284;-55
2021/12/20 01:30:19;;;;;;;10.23;8.07;;;;;;;6.07;66.27;98822.91;5113580;28;20600;-55
2021/12/20 01:32:46;;;;;;;8.80;7.37;;;;;;;6.04;66.49;98833.91;5113466;28;20229;-55
2021/12/20 01:35:16;;;;;;;8.37;6.63;;;;;;;6.02;66.09;98786.22;5113385;28;20283;-55
2021/12/20 01:37:44;;;;;;;7.43;6.67;;;;;;;6.30;65.33;98822.56;5113688;28;20201;-55
2021/12/20 01:40:14;;;;;;;7.57;6.33;;;;;;;6.46;65.42;98816.97;5113431;28;20191;-55
2021/12/20 01:42:42;;;;;;;7.67;5.73;;;;;;;6.54;64.46;98815.44;5113332;28;20191;-55
2021/12/20 01:45:13;;;;;;;7.80;6.43;;;;;;;6.52;64.81;98834.97;5113382;28;20224;-55
2021/12/20 01:47:44;;;;;;;9.63;6.70;;;;;;;6.53;64.97;98823.94;5113376;28;20291;-55
2021/12/20 01:50:17;;;;;;;6.97;6.17;;;;;;;6.45;65.14;98822.94;5112912;28;20198;-55
2021/12/20 01:52:46;;;;;;;9.27;7.03;;;;;;;6.48;65.68;98815.31;5112797;28;20201;-55
2021/12/20 01:55:16;;;;;;;7.83;7.03;;;;;;;6.52;65.10;98813.69;5113132;28;20318;-55
2021/12/20 01:57:43;;;;;;;9.67;7.77;;;;;;;6.46;65.45;98811.00;5113076;28;20273;-55
2021/12/20 02:00:13;;;;;;;10.60;8.40;;;;;;;6.40;65.66;98811.75;5112506;28;20445;-55
2021/12/20 02:02:43;;;;;;;7.83;6.53;;;;;;;6.38;66.59;98794.69;5112976;28;20190;-55
2021/12/20 02:05:17;;;;;;;8.17;7.20;;;;;;;6.35;66.60;98802.25;5112592;28;20310;-55
2021/12/20 02:07:56;;;;;;;8.03;7.20;;;;;;;6.28;65.95;98792.78;5112595;28;20199;-55
2021/12/20 02:10:23;;;;;;;9.33;7.23;;;;;;;6.26;66.92;98790.16;5112580;28;20219;-55
2021/12/20 02:12:50;;;;;;;8.57;7.10;;;;;;;6.29;66.84;98797.06;5112376;28;20287;-55
2021/12/20 02:15:17;;;;;;;10.10;6.77;;;;;;;6.24;67.19;98796.94;5112577;28;20647;-55
2021/12/20 02:17:44;;;;;;;7.63;6.83;;;;;;;6.25;66.86;98798.66;5112681;28;20617;-55
2021/12/20 02:20:24;;;;;;;9.57;7.47;;;;;;;6.30;67.11;98798.75;5112222;28;20199;-55
2021/12/20 02:22:53;;;;;;;8.27;6.43;;;;;;;6.34;66.89;98806.53;5112397;28;20200;-55
2021/12/20 02:25:20;;;;;;;7.43;6.30;;;;;;;6.35;67.18;98813.34;5112516;28;20312;-55
2021/12/20 02:27:48;;;;;;;8.30;6.67;;;;;;;6.45;66.40;98809.31;5112462;28;20297;-55
2021/12/20 02:30:37;;;;;;;8.73;7.00;;;;;;;6.44;66.62;98816.09;5112222;28;20644;-55
2021/12/20 02:38:36;;;;;;;7.30;6.53;;;;;;;6.61;65.76;98821.56;5112018;28;20812;-55
2021/12/20 02:41:07;;;;;;;6.70;6.07;;;;;;;6.67;66.19;98825.91;5112144;28;20195;-56
2021/12/20 02:43:38;;;;;;;6.83;6.13;;;;;;;6.63;65.90;98811.38;5111832;28;20199;-59
2021/12/20 02:46:10;;;;;;;8.07;6.13;;;;;;;6.77;64.38;98831.25;5111907;28;20841;-61
2021/12/20 02:48:37;;;;;;;9.53;6.23;;;;;;;6.80;64.47;98823.66;5111736;28;20199;-61
2021/12/20 02:51:05;;;;;;;7.67;6.23;;;;;;;6.88;64.12;98831.44;5111851;28;20665;-60
2021/12/20 02:53:32;;;;;;;7.03;5.90;;;;;;;6.93;64.07;98829.84;5111644;28;20187;-59
2021/12/20 02:55:59;;;;;;;6.93;6.00;;;;;;;7.00;63.46;98824.88;5111820;28;20195;-61
2021/12/20 02:58:26;;;;;;;7.70;6.10;;;;;;;7.01;62.87;98833.41;5111542;28;20218;-61
2021/12/20 03:00:53;;;;;;;6.60;5.87;;;;;;;7.05;63.31;98842.88;5111746;28;20194;-59
2021/12/20 03:03:20;;;;;;;8.77;6.57;;;;;;;7.01;63.43;98826.63;5111421;28;20202;-60
2021/12/20 03:05:47;;;;;;;6.57;5.93;;;;;;;6.99;63.57;98825.75;5111307;28;20310;-61
2021/12/20 03:08:15;;;;;;;6.90;6.20;;;;;;;7.04;63.56;98829.22;5111429;28;20192;-61
2021/12/20 03:10:42;;;;;;;6.27;5.67;;;;;;;7.09;63.58;98826.75;5111320;28;20199;-61
2021/12/20 03:13:10;;;;;;;7.57;6.53;;;;;;;7.06;63.61;98819.03;5111590;28;20275;-61
2021/12/20 03:15:37;;;;;;;7.20;5.80;;;;;;;7.11;63.21;98825.13;5111171;28;20569;-60
2021/12/20 03:18:04;;;;;;;6.73;5.40;;;;;;;7.09;63.84;98822.50;5111425;28;20195;-61
2021/12/20 03:20:31;;;;;;;7.60;5.80;;;;;;;7.01;63.53;98811.28;5111095;28;20194;-60
2021/12/20 03:22:59;;;;;;;7.00;6.20;;;;;;;7.07;63.97;98838.66;5111251;28;20188;-61
2021/12/20 03:25:27;;;;;;;6.80;5.80;;;;;;;7.13;62.45;98841.31;5111064;28;20210;-59
2021/12/20 03:27:54;;;;;;;6.53;5.90;;;;;;;7.07;62.57;98831.84;5111215;28;20299;-60
2021/12/20 03:30:21;;;;;;;7.00;5.93;;;;;;;7.10;61.90;98833.59;5111259;28;20637;-59
2021/12/20 03:32:48;;;;;;;7.23;5.27;;;;;;;7.10;61.90;98837.03;5110943;28;20299;-61
2021/12/20 03:35:15;;;;;;;6.37;5.47;;;;;;;6.97;62.28;98813.78;5110961;28;20761;-60
2021/12/20 03:37:43;;;;;;;6.97;5.47;;;;;;;7.09;61.92;98839.53;5111318;28;20319;-61
2021/12/20 03:40:11;;;;;;;7.77;5.73;;;;;;;6.97;62.42;98847.84;5111059;28;20298;-61
2021/12/20 03:42:42;;;;;;;6.67;5.70;;;;;;;7.02;62.09;98840.25;5110847;28;20195;-59
2021/12/20 03:45:10;;;;;;;6.60;5.90;;;;;;;7.00;62.39;98845.31;5110866;28;20711;-61
2021/12/20 03:47:37;;;;;;;8.27;5.43;;;;;;;7.02;62.56;98851.34;5109866;28;20194;-60
2021/12/20 03:50:05;;;;;;;7.57;5.80;;;;;;;7.00;62.89;98845.31;5110963;28;20656;-59
2021/12/20 03:52:32;;;;;;;7.20;6.17;;;;;;;6.99;62.38;98847.84;5110896;28;20637;-60
2021/12/20 03:54:59;;;;;;;7.72;6.93;;;;;;;7.02;62.75;98856.44;5109936;28;20458;-60
2021/12/20 03:57:26;;;;;;;6.27;5.67;;;;;;;7.10;62.40;98847.25;5110993;28;20257;-61
2021/12/20 03:59:54;;;;;;;7.13;5.97;;;;;;;7.11;62.59;98843.84;5110696;28;20287;-60
2021/12/20 04:02:22;;;;;;;6.90;6.07;;;;;;;7.10;62.00;98860.00;5111055;28;20272;-60
2021/12/20 04:04:49;;;;;;;7.73;6.53;;;;;;;7.08;62.38;98861.69;5110729;28;20649;-61
2021/12/20 04:07:16;;;;;;;6.63;5.93;;;;;;;7.10;62.66;98859.16;5110923;28;20180;-61
2021/12/20 04:09:43;;;;;;;7.27;6.57;;;;;;;7.10;62.46;98861.69;5110594;28;20656;-60
2021/12/20 04:12:11;;;;;;;7.90;6.50;;;;;;;7.10;62.49;98866.81;5110995;28;20195;-61
2021/12/20 04:14:38;;;;;;;7.90;6.53;;;;;;;7.07;62.43;98866.75;5110533;28;20187;-60
2021/12/20 04:17:06;;;;;;;6.60;5.87;;;;;;;7.10;62.32;98866.81;5110533;28;20278;-60
2021/12/20 04:19:33;;;;;;;8.63;6.63;;;;;;;7.08;62.02;98865.91;5110626;28;20211;-61
2021/12/20 04:22:00;;;;;;;7.80;6.50;;;;;;;7.10;61.80;98867.66;5110505;28;20186;-61
2021/12/20 04:24:27;;;;;;;6.83;6.13;;;;;;;7.09;62.04;98882.94;5110710;28;20313;-60
2021/12/20 04:26:54;;;;;;;7.53;6.33;;;;;;;7.09;61.69;98867.63;5110679;28;20635;-61
2021/12/20 04:29:21;;;;;;;7.33;5.93;;;;;;;7.10;62.09;98871.91;5110582;28;20291;-61
2021/12/20 04:31:48;;;;;;;7.07;5.93;;;;;;;7.14;62.04;98877.09;5110327;28;20715;-60
2021/12/20 04:34:16;;;;;;;7.93;6.70;;;;;;;6.94;61.64;98846.91;5110661;28;20220;-61
2021/12/20 04:36:43;;;;;;;7.83;6.70;;;;;;;7.20;61.41;98878.06;5110585;28;20189;-60
2021/12/20 04:39:14;;;;;;;8.23;6.13;;;;;;;7.13;61.49;98887.31;5110624;28;20235;-61
2021/12/20 04:41:42;;;;;;;8.90;6.17;;;;;;;7.10;61.68;98890.66;5110270;28;20199;-60
2021/12/20 04:44:09;;;;;;;7.47;6.73;;;;;;;7.13;61.84;98890.72;5110230;28;20194;-60
2021/12/20 04:46:36;;;;;;;8.27;7.20;;;;;;;7.06;62.62;98900.75;5110101;28;20282;-62
2021/12/20 04:49:03;;;;;;;8.07;6.50;;;;;;;7.07;62.19;98903.38;5110098;28;20191;-60
2021/12/20 04:51:32;;;;;;;8.53;7.03;;;;;;;7.09;62.46;98896.59;5110356;28;20288;-60
2021/12/20 04:53:59;;;;;;;11.20;7.47;;;;;;;7.05;62.81;98896.50;5081162;28;20193;-59
2021/12/20 04:56:26;;;;;;;8.67;7.40;;;;;;;7.06;62.76;98888.84;5069402;28;20189;-60
2021/12/20 04:58:53;;;;;;;8.95;7.63;;;;;;;7.12;63.11;98898.34;5080347;28;20440;-61
2021/12/20 05:01:20;;;;;;;8.90;6.80;;;;;;;7.19;63.35;98889.13;5102672;28;20211;-61
2021/12/20 05:03:47;;;;;;;8.13;7.30;;;;;;;7.18;62.98;98901.03;5113950;28;20700;-61
2021/12/20 05:06:14;;;;;;;9.13;7.67;;;;;;;7.19;63.63;98897.66;5094761;28;20309;-60
2021/12/20 05:08:48;;;;;;;8.50;7.20;;;;;;;7.24;62.96;98893.47;5093029;28;20276;-62
2021/12/20 05:11:16;;;;;;;10.33;7.07;;;;;;;7.25;63.30;98892.63;5090174;28;20272;-60
2021/12/20 05:13:43;;;;;;;9.93;7.67;;;;;;;7.24;63.72;98893.47;5085370;28;20282;-59
2021/12/20 05:16:10;;;;;;;7.77;6.97;;;;;;;7.30;63.03;98905.50;5083852;28;20697;-61
2021/12/20 05:18:37;;;;;;;8.47;7.43;;;;;;;7.29;63.60;98901.22;5081925;28;20641;-61
2021/12/20 05:21:04;;;;;;;8.18;7.38;;;;;;;7.34;62.64;98908.16;5081949;28;20439;-62
2021/12/20 05:23:32;;;;;;;7.50;6.50;;;;;;;7.36;62.63;98908.19;5083636;28;20348;-62
2021/12/20 05:26:00;;;;;;;7.63;6.40;;;;;;;7.32;62.48;98881.72;5080652;28;20261;-56
2021/12/20 05:28:27;;;;;;;8.95;7.43;;;;;;;7.38;62.61;98891.19;5072231;28;20453;-56
2021/12/20 05:30:54;;;;;;;9.77;7.47;;;;;;;7.47;62.40;98888.81;5090175;28;20200;-56
2021/12/20 05:33:22;;;;;;;9.80;7.53;;;;;;;7.46;62.09;98890.50;5113369;28;20228;-56
2021/12/20 05:35:49;;;;;;;8.33;7.03;;;;;;;7.43;61.88;98874.25;5113077;28;20238;-56
2021/12/20 05:38:16;;;;;;;7.60;6.50;;;;;;;7.51;62.04;98901.69;5113051;28;20271;-56
2021/12/20 05:40:43;;;;;;;9.87;7.13;;;;;;;7.53;61.90;98897.44;5112953;28;20278;-56
2021/12/20 05:43:11;;;;;;;10.00;7.07;;;;;;;7.42;62.37;98904.03;5113047;28;20203;-56
2021/12/20 05:45:38;;;;;;;7.23;6.30;;;;;;;7.53;62.31;98905.09;5112890;28;20227;-56
2021/12/20 05:48:05;;;;;;;8.77;7.88;;;;;;;7.55;61.91;98905.16;5112090;28;20519;-56
2021/12/20 05:50:32;;;;;;;7.97;6.23;;;;;;;7.55;62.22;98921.31;5112704;28;20196;-56
2021/12/20 05:52:59;;;;;;;7.70;6.23;;;;;;;7.59;61.77;98914.59;5113091;28;20197;-56
2021/12/20 05:55:26;;;;;;;7.47;6.67;;;;;;;7.60;61.67;98921.44;5112836;28;20200;-56
2021/12/20 05:57:53;;;;;;;8.43;6.60;;;;;;;7.63;61.46;98918.94;5112680;28;20383;-56
2021/12/20 06:00:22;;;;;;;8.30;7.23;;;;;;;7.63;61.63;98931.72;5112553;28;20196;-56
2021/12/20 06:02:51;;;;;;;7.80;6.87;;;;;;;7.63;61.47;98930.03;5112787;28;20188;-55
2021/12/20 06:05:19;;;;;;;10.30;7.43;;;;;;;7.61;61.87;98929.13;5107713;28;20231;-55
2021/12/20 06:07:47;;;;;;;9.40;7.07;;;;;;;7.47;62.13;98904.16;5092529;28;20184;-55
2021/12/20 06:10:16;;;;;;;7.77;6.83;;;;;;;7.64;62.18;98928.31;5091349;28;20194;-56
2021/12/20 06:12:44;;;;;;;10.27;7.97;;;;;;;7.62;61.94;98935.97;5092093;28;20272;-55
2021/12/20 06:15:12;;;;;;;9.77;8.20;;;;;;;7.62;61.83;98935.09;5091886;28;20428;-55
2021/12/20 06:17:40;;;;;;;10.53;8.30;;;;;;;7.65;62.06;98928.34;5092145;28;20288;-55
2021/12/20 06:20:10;;;;;;;11.17;8.53;;;;;;;7.70;61.85;98936.09;5091894;28;20273;-55
2021/12/20 06:22:37;;;;;;;14.30;8.93;;;;;;;7.58;61.42;98926.50;5091818;28;20190;-56
2021/12/20 06:25:06;;;;;;;10.80;8.97;;;;;;;7.52;61.38;98911.06;5092058;28;20221;-56
2021/12/20 06:27:33;;;;;;;11.03;9.00;;;;;;;7.71;60.82;98938.69;5099931;28;20210;-56
2021/12/20 06:30:00;;;;;;;10.87;7.67;;;;;;;7.73;60.37;98936.16;5106301;28;20202;-56
2021/12/20 06:32:27;;;;;;;7.93;7.13;;;;;;;7.73;60.42;98952.38;5111698;28;20314;-56
2021/12/20 06:34:55;;;;;;;9.07;6.73;;;;;;;7.73;59.65;98938.72;5112352;28;20191;-56
2021/12/20 06:37:23;;;;;;;10.60;7.30;;;;;;;7.81;59.75;98934.59;5111822;28;20207;-56
2021/12/20 06:39:49;;;;;;;7.60;6.83;;;;;;;7.85;59.18;98945.75;5111549;28;20195;-56
2021/12/20 06:42:17;;;;;;;8.33;6.00;;;;;;;7.88;59.55;98945.81;5111881;28;20196;-56
2021/12/20 06:44:44;;;;;;;8.33;7.07;;;;;;;7.93;59.34;98959.53;5111497;28;20200;-56
2021/12/20 06:47:11;;;;;;;7.97;6.40;;;;;;;7.96;59.58;98952.78;5111700;28;20277;-56
2021/12/20 06:49:38;;;;;;;9.93;6.53;;;;;;;7.97;59.34;98946.81;5111703;28;20569;-56
2021/12/20 06:52:06;;;;;;;8.80;7.00;;;;;;;8.00;59.54;98953.69;5111846;28;20201;-56
2021/12/20 06:54:33;;;;;;;6.97;5.97;;;;;;;8.08;59.44;98960.66;5111286;28;20648;-57
2021/12/20 06:57:00;;;;;;;9.47;6.33;;;;;;;8.13;59.14;98964.16;5111112;28;20285;-58
2021/12/20 06:59:28;;;;;;;7.23;5.77;;;;;;;8.19;59.29;98976.19;5111035;28;20281;-56
2021/12/20 07:01:55;;;;;;;7.23;5.50;;;;;;;8.11;59.36;98960.72;5111126;28;20222;-56
2021/12/20 07:04:22;;;;;;;10.73;7.03;;;;;;;8.14;59.41;98957.34;5108126;28;20285;-56
2021/12/20 07:06:49;;;;;;;6.90;6.17;;;;;;;8.21;59.20;98975.38;5090662;28;20323;-56
2021/12/20 07:09:17;;;;;;;7.40;6.60;;;;;;;8.23;59.16;98972.88;5090717;28;20180;-56
2021/12/20 07:11:44;;;;;;;6.27;5.57;;;;;;;8.27;58.95;98974.66;5090270;28;20297;-56
2021/12/20 07:14:12;;;;;;;9.00;5.43;;;;;;;8.04;59.44;98952.91;5088979;28;20217;-59
2021/12/20 07:16:40;;;;;;;7.23;5.90;;;;;;;8.11;59.90;98982.88;5079600;28;20320;-56
2021/12/20 07:19:08;;;;;;;9.00;5.70;;;;;;;8.06;59.56;98970.00;5086425;28;20230;-56
2021/12/20 07:21:34;;;;;;;7.83;6.70;;;;;;;8.03;59.51;98967.41;5098093;28;20423;-57
2021/12/20 07:24:02;;;;;;;6.27;5.67;;;;;;;7.96;59.72;98946.81;5090155;28;21105;-57
2021/12/20 07:26:31;;;;;;;6.30;5.70;;;;;;;8.05;59.60;98964.84;5090404;28;20295;-56
2021/12/20 07:28:58;;;;;;;6.43;5.77;;;;;;;8.05;60.12;98968.28;5090339;28;20194;-57
2021/12/20 07:31:25;;;;;;;6.07;5.07;;;;;;;8.05;59.53;98964.84;5097751;28;20317;-57
2021/12/20 07:33:52;;;;;;;6.60;5.60;;;;;;;8.08;60.02;98963.22;5110751;28;20274;-56
2021/12/20 07:36:21;;;;;;;5.30;4.80;;;;;;;8.08;59.55;98975.16;5110254;28;20529;-57
2021/12/20 07:38:48;;;;;;;5.47;4.77;;;;;;;8.07;59.04;98953.84;5110434;28;20537;-56
2021/12/20 07:41:18;;;;;;;6.53;5.60;;;;;;;8.16;59.05;98959.09;5110423;28;20752;-56
2021/12/20 07:43:47;;;;;;;5.40;4.90;;;;;;;8.14;58.85;98970.13;5109936;28;20198;-56
2021/12/20 07:46:14;;;;;;;5.70;5.13;;;;;;;8.12;58.73;98956.47;5110261;28;20214;-56
2021/12/20 07:48:41;;;;;;;5.18;4.47;;;;;;;8.24;58.70;98957.53;5110443;28;20096;-56
2021/12/20 07:51:08;;;;;;;6.23;4.57;;;;;;;8.23;58.47;98955.81;5110140;28;20192;-57
2021/12/20 07:53:35;;;;;;;7.00;4.23;;;;;;;8.29;57.97;98961.06;5110118;28;20275;-56
2021/12/20 07:56:02;;;;;;;5.67;4.30;;;;;;;8.27;58.44;98957.63;5110078;28;20552;-55
2021/12/20 07:58:29;;;;;;;5.60;4.13;;;;;;;8.25;58.46;98963.50;5110155;28;20529;-56
2021/12/20 08:00:58;;;;;;;5.70;4.17;;;;;;;8.30;58.23;98961.91;5109918;28;20182;-59
2021/12/20 08:03:26;;;;;;;9.47;4.47;;;;;;;8.38;57.97;98970.59;5110419;28;20436;-56
2021/12/20 08:05:53;;;;;;;7.37;3.67;;;;;;;8.47;57.20;98967.31;5110168;28;20389;-56
2021/12/20 08:08:20;;;;;;;5.00;3.47;;;;;;;8.52;56.95;98976.78;5110537;28;20186;-55
2021/12/20 08:10:47;;;;;;;4.03;3.73;;;;;;;8.56;57.18;98975.16;5110103;28;20190;-56
2021/12/20 08:13:15;;;;;;;4.13;3.73;;;;;;;8.60;56.69;98956.41;5110265;28;20199;-55
2021/12/20 08:15:43;;;;;;;5.73;3.93;;;;;;;8.61;56.33;98953.03;5110109;28;20278;-55
2021/12/20 08:18:12;;;;;;;3.90;3.60;;;;;;;8.80;56.49;98975.50;5110314;28;20259;-55
2021/12/20 08:20:40;;;;;;;4.40;3.87;;;;;;;8.84;56.20;98965.31;5109728;28;20355;-55
2021/12/20 08:23:07;;;;;;;4.57;3.63;;;;;;;8.82;55.85;98989.19;5110156;28;20189;-55
2021/12/20 08:25:35;;;;;;;4.07;3.70;;;;;;;8.87;55.73;98965.38;5110085;28;20218;-55
2021/12/20 08:28:03;;;;;;;3.93;3.53;;;;;;;8.98;54.85;98977.50;5110087;28;20192;-55
2021/12/20 08:30:30;;;;;;;7.87;3.80;;;;;;;8.96;54.91;98987.69;5109286;28;20193;-55
2021/12/20 08:32:57;;;;;;;4.80;3.95;;;;;;;9.14;54.76;98969.19;5108621;28;20449;-56
2021/12/20 08:35:25;;;;;;;3.87;3.57;;;;;;;9.28;54.23;98973.66;5107644;28;20717;-56
2021/12/20 08:37:53;;;;;;;3.47;3.17;;;;;;;9.24;53.76;98982.13;5093655;28;20186;-56
2021/12/20 08:40:21;;;;;;;4.30;3.77;;;;;;;9.28;53.71;98977.91;5093724;28;20195;-56
2021/12/20 08:42:49;;;;;;;5.57;3.73;;;;;;;9.35;53.82;98989.94;5093715;28;20193;-57
2021/12/20 08:45:17;;;;;;;4.07;3.63;;;;;;;9.33;53.18;98974.56;5093385;28;20273;-56
2021/12/20 08:47:45;;;;;;;9.33;4.27;;;;;;;9.47;53.47;98978.16;5093613;28;20189;-57
2021/12/20 08:50:15;;;;;;;9.67;4.70;;;;;;;9.47;53.45;98987.56;5093599;28;20198;-56
2021/12/20 08:52:44;;;;;;;4.20;3.80;;;;;;;9.48;53.21;98984.13;5093578;28;20273;-56
2021/12/20 08:55:12;;;;;;;4.00;3.67;;;;;;;9.50;53.09;98995.28;5093398;28;20198;-56
2021/12/20 08:57:40;;;;;;;4.95;4.45;;;;;;;9.53;52.16;98981.63;5090081;28;20892;-57
2021/12/20 09:00:10;;;;;;;4.20;3.50;;;;;;;9.57;52.05;98999.63;5086892;28;20199;-56
2021/12/20 09:02:38;;;;;;;4.83;4.20;;;;;;;9.52;51.80;98993.59;5093024;28;20189;-56
2021/12/20 09:05:05;;;;;;;4.10;3.20;;;;;;;9.47;51.45;98980.72;5093357;28;20198;-56
2021/12/20 09:07:33;;;;;;;5.77;3.60;;;;;;;9.54;51.97;98989.34;5093018;28;20216;-56
2021/12/20 09:10:01;;;;;;;3.43;3.00;;;;;;;9.55;51.89;98983.38;5093159;28;20200;-57
2021/12/20 09:12:28;;;;;;;3.30;3.00;;;;;;;9.67;51.14;98978.38;5093049;28;20284;-55
2021/12/20 09:14:55;;;;;;;6.27;3.33;;;;;;;9.73;51.21;99000.66;5092915;28;20193;-57
2021/12/20 09:17:22;;;;;;;3.87;3.13;;;;;;;9.66;51.38;98979.22;5093282;28;20290;-55
2021/12/20 09:19:51;;;;;;;6.27;3.50;;;;;;;9.71;51.57;98980.13;5092873;28;20670;-56
2021/12/20 09:22:18;;;;;;;3.30;3.00;;;;;;;9.88;51.06;98985.47;5093006;28;20629;-55
2021/12/20 09:24:45;;;;;;;7.10;4.27;;;;;;;9.92;50.88;98993.19;5092844;28;20208;-56
2021/12/20 09:27:13;;;;;;;4.83;3.77;;;;;;;9.93;49.75;98994.94;5091941;28;20221;-55
2021/12/20 09:29:41;;;;;;;3.57;3.00;;;;;;;9.86;49.63;99016.22;5091652;28;20279;-56
2021/12/20 09:32:08;;;;;;;3.90;3.50;;;;;;;9.86;50.47;98999.97;5091294;28;20230;-56
2021/12/20 09:34:36;;;;;;;8.97;4.77;;;;;;;9.92;50.14;99000.88;5091591;28;20197;-57
2021/12/20 09:37:06;;;;;;;6.37;3.70;;;;;;;9.92;49.92;99025.69;5092059;28;20727;-56
2021/12/20 09:39:33;;;;;;;6.33;3.93;;;;;;;9.72;49.95;99016.91;5092346;28;20199;-56
2021/12/20 09:42:00;;;;;;;5.03;3.17;;;;;;;9.71;49.65;98997.22;5092363;28;20278;-56
2021/12/20 09:44:29;;;;;;;3.17;2.90;;;;;;;9.73;49.65;98993.84;5091825;28;20189;-57
2021/12/20 09:46:58;;;;;;;4.53;3.20;;;;;;;9.72;49.86;98976.75;5091956;28;20219;-56
2021/12/20 09:49:26;;;;;;;3.70;3.33;;;;;;;9.89;49.76;98990.59;5092189;28;20224;-56
2021/12/20 09:51:55;;;;;;;4.20;3.20;;;;;;;9.92;49.28;98987.19;5092300;28;20196;-56
2021/12/20 09:54:21;;;;;;;3.77;3.03;;;;;;;9.88;49.10;98996.59;5092360;28;20198;-56
2021/12/20 09:56:52;;;;;;;3.80;3.40;;;;;;;9.88;49.13;98985.47;5092047;28;20940;-56
2021/12/20 09:59:22;;;;;;;5.80;2.53;;;;;;;9.90;47.90;99000.03;5091967;28;20193;-57
2021/12/20 10:01:51;;;;;;;5.20;3.13;;;;;;;9.93;47.82;98984.66;5092017;28;20198;-57
2021/12/20 10:04:19;;;;;;;5.03;3.47;;;;;;;9.95;47.79;99000.06;5091871;28;20197;-61
2021/12/20 10:06:46;;;;;;;4.63;3.60;;;;;;;10.02;48.17;98978.78;5076685;28;20223;-62
2021/12/20 10:09:15;;;;;;;4.40;3.33;;;;;;;10.07;47.89;98995.94;5091404;28;20284;-62
2021/12/20 10:11:43;;;;;;;3.57;3.20;;;;;;;10.11;47.89;99003.66;5091917;28;20282;-61
2021/12/20 10:14:14;;;;;;;3.57;2.90;;;;;;;10.01;48.02;98983.03;5091725;28;20550;-62
2021/12/20 10:16:44;;;;;;;4.73;3.10;;;;;;;9.91;48.25;98983.78;5091970;28;20290;-62
2021/12/20 10:19:31;;;;;;;3.50;3.20;;;;;;;9.89;48.14;98982.91;5091167;28;20477;-62
2021/12/20 10:22:01;;;;;;;2.90;2.70;;;;;;;9.78;48.81;98955.44;5091481;28;20676;-61
2021/12/20 10:24:33;;;;;;;3.20;2.77;;;;;;;10.02;48.60;98984.78;5091599;28;20193;-62
2021/12/20 10:27:01;;;;;;;2.97;2.70;;;;;;;10.00;47.45;98991.56;5091142;28;20304;-61
2021/12/20 10:29:28;;;;;;;5.23;2.60;;;;;;;9.91;47.61;98986.34;5110371;28;20287;-62
2021/12/20 10:31:55;;;;;;;3.10;2.57;;;;;;;9.91;47.41;99027.41;5111557;28;20233;-62
2021/12/20 10:34:33;;;;;;;3.03;2.77;;;;;;;10.04;48.03;98993.34;5101816;28;20213;-62
2021/12/20 10:37:01;;;;;;;3.30;2.90;;;;;;;10.32;47.60;98996.19;5091273;28;20562;-61
2021/12/20 10:39:37;;;;;;;2.90;2.63;;;;;;;10.32;46.92;99003.91;5111691;28;20194;-62
2021/12/20 10:42:16;;;;;;;5.57;2.40;;;;;;;10.53;45.52;98989.53;5111484;28;20189;-62
2021/12/20 10:44:43;;;;;;;3.37;3.07;;;;;;;10.53;45.65;98980.97;5111304;28;20179;-61
2021/12/20 10:47:25;;;;;;;4.43;2.63;;;;;;;10.39;45.97;98983.41;5106243;28;20223;-61
2021/12/20 10:49:54;;;;;;;4.10;3.03;;;;;;;10.37;46.62;98958.56;5090888;28;20526;-62
2021/12/20 10:52:28;;;;;;;3.23;2.70;;;;;;;10.43;47.16;98979.19;5091049;28;20289;-63
2021/12/20 10:54:55;;;;;;;3.07;2.63;;;;;;;10.40;46.33;98945.78;5091499;28;20198;-63
2021/12/20 10:57:28;;;;;;;3.33;2.57;;;;;;;10.55;45.79;98981.81;5090847;28;20194;-62
2021/12/20 11:00:15;;;;;;;3.30;2.90;;;;;;;10.49;44.92;99003.19;5090839;28;20204;-61
2021/12/20 11:11:23;;;;;;;5.77;2.60;;;;;;;10.51;45.47;98993.81;5070934;28;20196;-63
2021/12/20 11:13:50;;;;;;;3.57;3.07;;;;;;;10.61;45.61;98987.88;5070548;28;20278;-63
2021/12/20 11:16:27;;;;;;;3.00;2.77;;;;;;;10.58;45.26;98984.44;5070332;28;20195;-62
2021/12/20 11:19:24;;;;;;;8.17;3.17;;;;;;;10.42;45.29;98985.16;5094059;28;20199;-63
2021/12/20 11:22:04;;;;;;;3.20;2.90;;;;;;;10.31;44.88;99007.31;5108612;28;20645;-62
2021/12/20 11:24:34;;;;;;;3.83;2.83;;;;;;;10.21;45.45;98990.09;5111307;28;20216;-62
2021/12/20 11:27:04;;;;;;;3.23;2.53;;;;;;;10.07;45.42;98988.22;5110924;28;20218;-62
2021/12/20 11:29:31;;;;;;;2.50;2.30;;;;;;;9.95;45.59;98993.22;5111028;28;20201;-61
2021/12/20 11:32:00;;;;;;;7.47;3.63;;;;;;;9.96;46.48;98992.41;5110302;28;20225;-62
2021/12/20 11:34:28;;;;;;;2.60;2.40;;;;;;;9.90;45.90;98989.75;5110977;28;20208;-62
2021/12/20 11:36:59;;;;;;;8.10;2.70;;;;;;;9.91;45.89;99012.03;5111318;28;20233;-61
2021/12/20 11:39:26;;;;;;;2.70;2.47;;;;;;;9.82;46.24;98999.09;5070190;28;20281;-62
2021/12/20 11:41:54;;;;;;;2.93;2.67;;;;;;;9.79;46.28;99000.75;5082892;28;20301;-62
2021/12/20 11:44:26;;;;;;;2.60;2.40;;;;;;;9.80;46.46;98982.81;5090367;28;20197;-62
2021/12/20 11:47:16;;;;;;;2.70;2.50;;;;;;;9.94;46.81;98970.97;5090112;28;20211;-62
2021/12/20 11:49:44;;;;;;;5.32;3.08;;;;;;;10.04;46.83;98997.59;5090167;28;20432;-62
2021/12/20 11:52:17;;;;;;;3.10;2.87;;;;;;;9.99;47.80;98992.44;5090131;28;20294;-62
2021/12/20 11:54:49;;;;;;;3.07;2.77;;;;;;;9.94;47.80;99000.94;5090179;28;20191;-61
2021/12/20 11:57:41;;;;;;;3.67;3.30;;;;;;;10.03;47.65;98998.44;5090351;28;20205;-62
2021/12/20 12:00:19;;;;;;;3.50;3.20;;;;;;;9.97;48.44;98996.66;5081588;28;20288;-62
2021/12/20 12:02:48;;;;;;;3.10;2.80;;;;;;;10.00;48.55;98995.84;5090263;28;20375;-61
2021/12/20 12:05:18;;;;;;;3.78;3.38;;;;;;;9.88;48.61;98982.91;5089229;28;20436;-61